Time;durP1;ratioP1;P1;durP2;ratioP2;P2;SDS_P1;SDS_P2;PMS_P1;PMS_P2;Temp;Humidity;BMP_temperature;BMP_pressure;BME280_temperature;BME280_humidity;BME280_pressure;Samples;Min_cycle;Max_cycle;Signal;HPM_P1;HPM_P2
2022/09/18 00:00:17;;;;;;;9.35;4.30;;;;;;;16.42;100.00;95620.22;5047164;28;20179;-62
2022/09/18 00:02:43;;;;;;;7.07;4.97;;;;;;;16.95;100.00;95691.38;5046074;28;20142;-63
2022/09/18 00:05:10;;;;;;;6.93;4.47;;;;;;;16.99;100.00;95680.91;5045442;28;20084;-63
2022/09/18 00:07:37;;;;;;;7.50;5.20;;;;;;;16.67;100.00;95641.88;5045985;28;20144;-62
2022/09/18 00:10:04;;;;;;;7.43;5.38;;;;;;;17.00;100.00;95688.03;5045782;28;20147;-63
2022/09/18 00:12:30;;;;;;;9.30;5.13;;;;;;;16.96;100.00;95688.16;5047707;28;20587;-62
2022/09/18 00:14:57;;;;;;;8.02;5.22;;;;;;;16.35;100.00;95610.03;5046880;28;20053;-63
2022/09/18 00:17:24;;;;;;;6.63;5.65;;;;;;;16.72;100.00;95650.53;5047015;28;20527;-63
2022/09/18 00:19:51;;;;;;;19.80;6.03;;;;;;;16.52;100.00;95619.94;5046818;28;20053;-63
2022/09/18 00:22:18;;;;;;;7.68;5.63;;;;;;;17.18;100.00;95682.72;5047354;28;20084;-63
2022/09/18 00:24:45;;;;;;;7.57;4.68;;;;;;;17.08;100.00;95678.22;5046912;28;20067;-63
2022/09/18 00:27:11;;;;;;;9.65;4.00;;;;;;;16.97;100.00;95689.72;5047263;28;20470;-63
2022/09/18 00:29:38;;;;;;;13.23;4.20;;;;;;;15.77;100.00;95510.72;5045552;28;20057;-63
2022/09/18 00:32:05;;;;;;;9.68;4.03;;;;;;;16.58;100.00;95623.75;5045615;28;20496;-63
2022/09/18 00:34:31;;;;;;;4.57;3.70;;;;;;;16.96;100.00;95687.38;5046938;28;20427;-63
2022/09/18 00:36:58;;;;;;;5.28;3.50;;;;;;;16.94;100.00;95687.03;5046873;28;20132;-62
2022/09/18 00:39:24;;;;;;;5.07;3.72;;;;;;;16.90;100.00;95689.94;5045500;28;20063;-62
2022/09/18 00:41:51;;;;;;;7.10;3.38;;;;;;;16.80;100.00;95691.03;5046860;28;20161;-63
2022/09/18 00:44:39;;;;;;;6.22;4.10;;;;;;;16.81;100.00;95686.22;5046327;28;20229;-63
2022/09/18 00:47:15;;;;;;;6.07;3.50;;;;;;;16.59;100.00;95653.28;5046756;28;20541;-62
2022/09/18 00:49:48;;;;;;;4.22;2.80;;;;;;;16.86;100.00;95699.66;5046729;28;20132;-63
2022/09/18 00:52:17;;;;;;;6.65;3.33;;;;;;;16.79;100.00;95695.03;5046398;28;20527;-62
2022/09/18 00:54:49;;;;;;;4.82;3.42;;;;;;;16.87;100.00;95693.63;5046603;28;20135;-62
2022/09/18 00:57:23;;;;;;;5.35;3.28;;;;;;;15.97;100.00;95542.06;5045285;28;20084;-62
2022/09/18 00:59:51;;;;;;;4.15;3.72;;;;;;;14.61;100.00;95331.75;5044765;28;20095;-62
2022/09/18 01:02:19;;;;;;;4.05;3.30;;;;;;;16.59;100.00;95661.69;5046407;28;20525;-63
2022/09/18 01:04:47;;;;;;;4.00;2.95;;;;;;;16.94;100.00;95681.44;5044939;28;20057;-63
2022/09/18 01:07:24;;;;;;;7.53;3.50;;;;;;;16.91;100.00;95679.53;5045997;28;20167;-65
2022/09/18 01:09:57;;;;;;;4.57;3.03;;;;;;;16.83;100.00;95678.16;5045639;28;20048;-62
2022/09/18 01:12:51;;;;;;;13.55;3.35;;;;;;;16.44;100.00;95621.38;5045146;28;20135;-62
2022/09/18 01:15:33;;;;;;;5.78;2.80;;;;;;;16.88;100.00;95669.25;5045787;28;20909;-63
2022/09/18 01:18:38;;;;;;;6.07;2.83;;;;;;;16.79;100.00;95674.72;5046587;28;20583;-62
2022/09/18 01:21:08;;;;;;;4.93;2.65;;;;;;;16.83;100.00;95669.78;5045694;28;20586;-62
2022/09/18 01:23:56;;;;;;;9.07;3.00;;;;;;;16.78;100.00;95659.13;5045856;28;20102;-62
2022/09/18 01:26:29;;;;;;;4.63;3.13;;;;;;;16.63;100.00;95642.78;5045703;28;20143;-62
2022/09/18 01:29:22;;;;;;;3.10;2.80;;;;;;;16.75;100.00;95668.41;5045759;28;20565;-63
2022/09/18 01:31:52;;;;;;;7.20;3.13;;;;;;;16.70;100.00;95668.97;5045696;28;20081;-62
2022/09/18 01:34:36;;;;;;;7.20;3.47;;;;;;;16.66;100.00;95669.06;5045802;28;20095;-62
2022/09/18 01:37:35;;;;;;;10.52;3.90;;;;;;;16.63;100.00;95674.78;5044183;28;20486;-62
2022/09/18 01:40:23;;;;;;;5.68;2.95;;;;;;;16.67;100.00;95681.03;5045455;28;20092;-63
2022/09/18 01:42:54;;;;;;;10.07;3.67;;;;;;;16.60;100.00;95677.22;5045744;28;20198;-63
2022/09/18 01:45:26;;;;;;;5.28;3.10;;;;;;;16.57;100.00;95675.31;5045418;28;20132;-63
2022/09/18 01:47:58;;;;;;;5.38;3.25;;;;;;;16.68;100.00;95688.22;5046108;28;20132;-62
2022/09/18 01:50:29;;;;;;;7.57;2.78;;;;;;;16.38;100.00;95656.66;5044987;28;20049;-63
2022/09/18 01:53:15;;;;;;;8.82;3.20;;;;;;;16.45;100.00;95662.06;5045898;28;20057;-62
2022/09/18 01:55:48;;;;;;;6.70;3.53;;;;;;;16.63;100.00;95676.31;5045218;28;20088;-62
2022/09/18 01:58:18;;;;;;;4.63;3.05;;;;;;;16.71;100.00;95681.72;5045173;28;20180;-63
2022/09/18 02:00:52;;;;;;;5.40;3.25;;;;;;;16.75;100.00;95699.19;5044793;28;20589;-62
2022/09/18 02:03:26;;;;;;;8.00;3.67;;;;;;;16.45;100.00;95630.53;5043877;28;20103;-62
2022/09/18 02:05:57;;;;;;;4.22;2.70;;;;;;;16.94;100.00;95706.63;5044842;28;20087;-63
2022/09/18 02:08:30;;;;;;;7.78;4.03;;;;;;;16.91;100.00;95696.31;5043911;28;20096;-63
2022/09/18 02:11:05;;;;;;;20.45;6.57;;;;;;;16.88;100.00;95698.00;5043363;28;20144;-62
2022/09/18 02:13:42;;;;;;;23.75;6.88;;;;;;;16.58;100.00;95654.50;5044815;28;20061;-63
2022/09/18 02:16:37;;;;;;;22.75;7.10;;;;;;;16.88;100.00;95702.81;5042198;28;20092;-62
2022/09/18 02:19:06;;;;;;;;;;;;;;;16.93;100.00;95699.47;5043789;28;20072;-63
2022/09/18 02:21:35;;;;;;;12.40;4.80;;;;;;;16.81;100.00;95706.59;5044461;28;20014;-62
2022/09/18 02:24:06;;;;;;;7.55;4.55;;;;;;;16.76;100.00;95709.13;5044035;28;20053;-62
2022/09/18 02:26:35;;;;;;;4.70;3.63;;;;;;;16.66;100.00;95713.03;5044560;28;20128;-63
2022/09/18 02:29:05;;;;;;;7.03;4.32;;;;;;;16.60;100.00;95712.75;5043504;28;20565;-62
2022/09/18 02:31:33;;;;;;;5.55;3.85;;;;;;;16.56;100.00;95715.69;5044545;28;20142;-62
2022/09/18 02:33:59;;;;;;;4.90;3.78;;;;;;;16.43;100.00;95723.19;5043405;28;20581;-62
2022/09/18 02:36:44;;;;;;;4.43;3.78;;;;;;;16.38;100.00;95728.50;5044380;28;20123;-62
2022/09/18 02:39:34;;;;;;;8.30;3.33;;;;;;;16.22;100.00;95737.72;5043406;28;20057;-62
2022/09/18 02:42:07;;;;;;;9.27;3.58;;;;;;;16.34;100.00;95737.00;5044547;28;20060;-62
2022/09/18 02:44:57;;;;;;;3.88;3.08;;;;;;;16.36;100.00;95744.97;4983608;28;20508;-62
2022/09/18 02:47:49;;;;;;;3.97;2.97;;;;;;;16.37;100.00;95752.91;5044353;28;20086;-62
2022/09/18 02:50:21;;;;;;;10.13;3.95;;;;;;;16.02;100.00;95758.59;5042789;28;20053;-61
2022/09/18 02:53:04;;;;;;;8.63;5.95;;;;;;;16.12;100.00;95751.97;5043129;28;20148;-63
2022/09/18 02:55:40;;;;;;;9.63;4.57;;;;;;;16.21;100.00;95760.50;5042758;28;20139;-62
2022/09/18 02:58:29;;;;;;;8.90;5.47;;;;;;;16.34;100.00;95759.34;5044717;28;20131;-62
2022/09/18 03:00:59;;;;;;;8.38;6.25;;;;;;;16.34;100.00;95759.34;5044088;28;20224;-62
2022/09/18 03:03:30;;;;;;;9.35;6.43;;;;;;;16.24;100.00;95726.91;5044806;28;20060;-62
2022/09/18 03:05:57;;;;;;;7.53;6.22;;;;;;;16.54;100.00;95760.06;5042841;28;20481;-63
2022/09/18 03:08:24;;;;;;;12.45;7.22;;;;;;;16.56;100.00;95748.44;5044935;28;20224;-62
2022/09/18 03:10:51;;;;;;;6.78;6.05;;;;;;;16.18;100.00;95702.72;5044592;28;20056;-62
2022/09/18 03:13:17;;;;;;;7.93;7.13;;;;;;;16.18;100.00;95688.75;5043467;28;20103;-63
2022/09/18 03:15:44;;;;;;;7.70;6.88;;;;;;;16.53;100.00;95752.88;5044291;28;20080;-62
2022/09/18 03:18:10;;;;;;;6.90;6.20;;;;;;;15.97;100.00;95678.13;5044592;28;20591;-63
2022/09/18 03:20:39;;;;;;;8.77;6.53;;;;;;;15.62;100.00;95623.97;5043997;28;20369;-62
2022/09/18 03:23:05;;;;;;;8.40;7.53;;;;;;;16.37;100.00;95758.50;5042776;28;20064;-62
2022/09/18 03:25:32;;;;;;;12.77;6.65;;;;;;;16.17;100.00;95766.19;5042585;28;20088;-62
2022/09/18 03:27:59;;;;;;;12.75;6.78;;;;;;;16.13;100.00;95773.88;5044276;28;20092;-62
2022/09/18 03:30:26;;;;;;;7.78;6.30;;;;;;;15.52;100.00;95747.84;5042828;28;20049;-62
2022/09/18 03:32:53;;;;;;;9.30;5.60;;;;;;;15.84;100.00;95747.84;5043780;28;20131;-62
2022/09/18 03:35:19;;;;;;;10.70;5.85;;;;;;;15.88;100.00;95793.25;5046915;28;20486;-62
2022/09/18 03:37:46;;;;;;;9.52;6.07;;;;;;;15.60;100.00;95765.97;5000332;28;20140;-62
2022/09/18 03:40:14;;;;;;;9.07;5.65;;;;;;;15.94;100.00;95808.25;5027718;28;20593;-63
2022/09/18 03:42:44;;;;;;;8.35;5.80;;;;;;;16.20;100.00;95809.25;5028179;28;20071;-62
2022/09/18 03:45:11;;;;;;;11.63;6.20;;;;;;;15.80;100.00;95729.63;5028017;28;20055;-62
2022/09/18 03:47:38;;;;;;;7.50;6.13;;;;;;;16.40;100.00;95821.91;5028194;28;20122;-63
2022/09/18 03:50:05;;;;;;;7.50;6.25;;;;;;;16.52;100.00;95835.19;5027741;28;20522;-63
2022/09/18 03:52:33;;;;;;;6.65;6.05;;;;;;;16.67;100.00;95843.19;5026140;28;20053;-62
2022/09/18 03:54:59;;;;;;;6.43;5.82;;;;;;;16.76;100.00;95840.56;5026417;28;20132;-62
2022/09/18 03:57:26;;;;;;;6.13;5.45;;;;;;;16.86;100.00;95839.50;5027700;28;20132;-62
2022/09/18 03:59:53;;;;;;;9.38;4.57;;;;;;;16.88;100.00;95849.03;5026375;28;20674;-62
2022/09/18 04:02:19;;;;;;;5.00;4.05;;;;;;;16.85;100.00;95849.13;5027405;28;20569;-62
2022/09/18 04:04:46;;;;;;;4.03;3.70;;;;;;;16.16;100.00;95764.63;5027347;28;20144;-62
2022/09/18 04:07:13;;;;;;;4.70;3.75;;;;;;;16.26;100.00;95758.00;5026860;28;20084;-62
2022/09/18 04:09:39;;;;;;;4.28;3.97;;;;;;;16.86;100.00;95856.28;5027530;28;20513;-62
2022/09/18 04:12:06;;;;;;;5.40;3.95;;;;;;;16.71;100.00;95815.94;5027235;28;20136;-61
2022/09/18 04:14:33;;;;;;;4.60;4.20;;;;;;;16.97;100.00;95868.78;5027595;28;20157;-62
2022/09/18 04:16:59;;;;;;;8.02;4.97;;;;;;;16.99;100.00;95859.94;5025640;28;20068;-61
2022/09/18 04:19:26;;;;;;;5.95;4.28;;;;;;;16.93;100.00;95856.09;5027298;28;20101;-62
2022/09/18 04:21:53;;;;;;;5.03;3.72;;;;;;;16.56;100.00;95868.66;5042228;28;20057;-63
2022/09/18 04:24:19;;;;;;;3.75;3.40;;;;;;;16.77;100.00;95875.72;5027302;28;20119;-62
2022/09/18 04:26:46;;;;;;;7.35;4.05;;;;;;;16.42;100.00;95880.91;5027092;28;20132;-63
2022/09/18 04:29:12;;;;;;;5.30;3.97;;;;;;;16.60;100.00;95895.28;5027076;28;20128;-62
2022/09/18 04:31:39;;;;;;;9.52;3.47;;;;;;;16.43;100.00;95899.28;5027398;28;20164;-62
2022/09/18 04:34:06;;;;;;;6.13;2.92;;;;;;;16.46;100.00;95895.66;5027038;28;20081;-62
2022/09/18 04:36:32;;;;;;;4.60;3.15;;;;;;;16.15;100.00;95846.88;5025722;28;20129;-63
2022/09/18 04:38:59;;;;;;;4.85;3.60;;;;;;;16.60;100.00;95903.69;5026758;28;20107;-62
2022/09/18 04:41:26;;;;;;;5.72;2.63;;;;;;;16.73;100.00;95914.16;5026722;28;20084;-62
2022/09/18 04:43:52;;;;;;;2.90;2.60;;;;;;;16.16;100.00;95854.03;5026827;28;20131;-62
2022/09/18 04:46:19;;;;;;;3.33;2.78;;;;;;;16.74;100.00;95924.13;5025181;28;20527;-62
2022/09/18 04:48:48;;;;;;;4.22;2.70;;;;;;;16.82;100.00;95931.13;5026621;28;20060;-61
2022/09/18 04:51:15;;;;;;;5.20;3.00;;;;;;;16.23;99.22;95848.25;5026348;28;20061;-63
2022/09/18 04:53:41;;;;;;;2.75;2.55;;;;;;;16.91;98.28;95948.06;5026762;28;20429;-61
2022/09/18 04:56:08;;;;;;;2.95;2.60;;;;;;;16.75;95.26;95948.06;5026631;28;20136;-62
2022/09/18 04:58:34;;;;;;;4.20;2.83;;;;;;;16.77;97.56;95954.00;5024901;28;20111;-62
2022/09/18 05:01:01;;;;;;;4.82;2.70;;;;;;;16.89;96.98;95956.09;5026598;28;20084;-62
2022/09/18 05:03:28;;;;;;;3.05;2.85;;;;;;;16.75;95.42;95965.66;5026717;28;20076;-61
2022/09/18 05:05:55;;;;;;;6.53;3.13;;;;;;;16.69;98.71;95970.19;5026411;28;20093;-61
2022/09/18 05:08:23;;;;;;;3.40;2.75;;;;;;;16.66;99.85;95973.06;5026769;28;20087;-62
2022/09/18 05:10:49;;;;;;;3.85;2.70;;;;;;;16.74;100.00;95977.25;5026428;28;20053;-62
2022/09/18 05:13:16;;;;;;;2.60;2.40;;;;;;;16.81;95.56;95983.47;5026777;28;20061;-62
2022/09/18 05:15:43;;;;;;;2.17;2.08;;;;;;;15.70;84.75;95882.22;5026499;28;20452;-62
2022/09/18 05:18:11;;;;;;;4.30;2.35;;;;;;;16.61;90.89;96000.31;5026803;28;20053;-62
2022/09/18 05:20:38;;;;;;;2.50;2.30;;;;;;;16.79;91.49;95985.13;5026198;28;20222;-62
2022/09/18 05:23:05;;;;;;;2.25;2.00;;;;;;;16.88;86.34;95982.50;5026329;28;20628;-62
2022/09/18 05:25:32;;;;;;;2.47;2.28;;;;;;;17.10;84.47;96003.94;5025897;28;20094;-63
2022/09/18 05:28:01;;;;;;;2.88;2.53;;;;;;;17.20;86.60;96004.91;5026106;28;20518;-62
2022/09/18 05:30:30;;;;;;;2.67;2.40;;;;;;;16.98;87.55;95978.66;5026084;28;20057;-62
2022/09/18 05:32:59;;;;;;;2.80;2.60;;;;;;;16.89;88.93;95972.88;5025959;28;20111;-62
2022/09/18 05:35:28;;;;;;;2.88;2.67;;;;;;;17.05;89.96;96023.25;5041281;28;20136;-62
2022/09/18 05:37:55;;;;;;;2.67;2.58;;;;;;;17.09;88.79;96026.72;5033846;28;20144;-61
2022/09/18 05:40:26;;;;;;;2.47;2.33;;;;;;;16.99;88.51;96033.41;5045417;28;20052;-62
2022/09/18 05:42:52;;;;;;;6.43;2.67;;;;;;;17.17;88.58;96030.94;5046141;28;20167;-62
2022/09/18 05:45:21;;;;;;;3.40;2.55;;;;;;;17.10;89.51;96017.94;5045310;28;20127;-63
2022/09/18 05:47:54;;;;;;;2.53;2.28;;;;;;;17.06;89.36;96033.22;5045745;28;20089;-62
2022/09/18 05:50:22;;;;;;;4.57;2.75;;;;;;;16.96;87.84;96006.28;5045259;28;20092;-62
2022/09/18 05:52:57;;;;;;;3.47;3.28;;;;;;;17.27;85.89;96035.50;5045522;28;20061;-63
2022/09/18 05:55:25;;;;;;;3.92;2.40;;;;;;;17.53;87.28;96037.25;5043458;28;20088;-62
2022/09/18 05:57:58;;;;;;;3.60;2.40;;;;;;;17.51;84.17;96043.28;5044036;28;20056;-63
2022/09/18 06:00:26;;;;;;;2.53;2.42;;;;;;;17.53;86.48;96054.81;5045054;28;20092;-63
2022/09/18 06:03:01;;;;;;;3.33;2.90;;;;;;;17.59;85.17;96043.88;5043671;28;20089;-63
2022/09/18 06:05:31;;;;;;;2.25;1.90;;;;;;;17.64;81.93;96057.38;5043156;28;20587;-62
2022/09/18 06:07:58;;;;;;;2.30;2.10;;;;;;;17.61;83.84;96058.22;5043588;28;20743;-61
2022/09/18 06:10:26;;;;;;;2.60;2.40;;;;;;;17.48;84.47;96065.78;5044337;28;20053;-64
2022/09/18 06:13:03;;;;;;;3.17;2.30;;;;;;;17.34;85.01;96060.50;5042789;28;20057;-64
2022/09/18 06:15:31;;;;;;;1.90;1.80;;;;;;;17.29;82.78;96063.84;5043114;28;20096;-64
2022/09/18 06:17:58;;;;;;;2.25;2.08;;;;;;;16.60;83.84;95959.59;5045236;28;20164;-63
2022/09/18 06:20:25;;;;;;;4.63;2.10;;;;;;;17.05;83.66;95998.88;5044435;28;20156;-63
2022/09/18 06:22:52;;;;;;;3.10;1.85;;;;;;;16.86;81.85;96018.53;5043570;28;20516;-64
2022/09/18 06:25:20;;;;;;;6.20;2.70;;;;;;;17.54;84.00;96083.63;5043013;28;20052;-64
2022/09/18 06:27:57;;;;;;;4.20;2.40;;;;;;;17.11;84.16;96041.09;5044992;28;20128;-64
2022/09/18 06:30:28;;;;;;;5.97;5.18;;;;;;;17.50;83.07;96091.31;5044759;28;20060;-63
2022/09/18 06:32:59;;;;;;;4.75;3.97;;;;;;;17.41;83.76;96079.91;5044533;28;20193;-63
2022/09/18 06:35:25;;;;;;;5.53;3.05;;;;;;;17.64;82.57;96097.34;5043765;28;20501;-64
2022/09/18 06:37:52;;;;;;;3.20;2.80;;;;;;;17.38;83.44;96061.19;5043069;28;20142;-64
2022/09/18 06:40:18;;;;;;;2.42;2.33;;;;;;;17.81;81.59;96118.50;5042083;28;20102;-63
2022/09/18 06:42:45;;;;;;;2.47;2.30;;;;;;;17.71;82.12;96062.75;5042470;28;20067;-64
2022/09/18 06:45:12;;;;;;;2.67;2.47;;;;;;;18.15;79.92;96075.19;5042438;28;20133;-63
2022/09/18 06:47:39;;;;;;;2.33;2.22;;;;;;;16.72;77.54;95818.31;5042994;28;20197;-64
2022/09/18 06:50:06;;;;;;;3.08;2.72;;;;;;;18.48;76.93;96038.16;5042742;28;20068;-63
2022/09/18 06:52:33;;;;;;;2.92;2.70;;;;;;;19.06;76.76;96123.75;5044574;28;20148;-64
2022/09/18 06:55:00;;;;;;;4.25;2.90;;;;;;;17.58;76.68;95916.28;5044139;28;20114;-64
2022/09/18 06:57:26;;;;;;;3.75;3.00;;;;;;;19.48;74.70;96128.09;5042882;28;20122;-63
2022/09/18 06:59:53;;;;;;;2.53;2.33;;;;;;;19.21;71.66;96040.66;5044178;28;20060;-65
2022/09/18 07:02:20;;;;;;;4.97;3.25;;;;;;;20.00;68.07;96146.41;5042583;28;20048;-64
2022/09/18 07:04:48;;;;;;;4.57;3.35;;;;;;;20.19;65.94;96148.19;5043208;28;20520;-64
2022/09/18 07:07:15;;;;;;;3.30;3.10;;;;;;;20.24;67.93;96144.81;5042702;28;20049;-66
2022/09/18 07:09:42;;;;;;;5.05;3.83;;;;;;;19.03;66.38;96018.00;5048313;28;20476;-64
2022/09/18 07:12:09;;;;;;;5.72;2.95;;;;;;;20.02;67.82;96155.19;5048651;28;20085;-64
2022/09/18 07:14:35;;;;;;;3.30;2.97;;;;;;;20.41;64.72;96171.53;5046512;28;20119;-64
2022/09/18 07:17:02;;;;;;;3.55;3.35;;;;;;;20.09;64.50;96109.97;5047623;28;20102;-64
2022/09/18 07:19:29;;;;;;;3.15;2.95;;;;;;;20.70;64.18;96177.72;5047942;28;20118;-66
2022/09/18 07:21:55;;;;;;;3.83;3.40;;;;;;;20.70;63.83;96177.72;5047713;28;20057;-64
2022/09/18 07:24:22;;;;;;;4.00;3.50;;;;;;;20.09;62.99;96169.78;5047770;28;20472;-64
2022/09/18 07:26:49;;;;;;;6.53;3.70;;;;;;;20.31;62.23;96175.50;5048148;28;20466;-65
2022/09/18 07:29:15;;;;;;;4.38;3.90;;;;;;;20.33;61.79;96182.25;5048467;28;20053;-64
2022/09/18 07:31:42;;;;;;;4.30;3.90;;;;;;;20.23;64.18;96160.13;5046565;28;20185;-65
2022/09/18 07:34:10;;;;;;;4.13;3.72;;;;;;;19.57;62.71;96157.53;5047082;28;20131;-64
2022/09/18 07:36:37;;;;;;;4.15;3.70;;;;;;;18.94;65.33;95952.56;5048183;28;20137;-65
2022/09/18 07:39:04;;;;;;;4.07;3.60;;;;;;;20.79;61.09;96163.69;5047038;28;20156;-65
2022/09/18 07:41:30;;;;;;;3.45;3.15;;;;;;;21.24;59.94;96149.94;5046380;28;20143;-65
2022/09/18 07:43:57;;;;;;;3.90;3.60;;;;;;;21.92;57.59;96183.47;5047104;28;20159;-62
2022/09/18 07:46:24;;;;;;;7.53;5.57;;;;;;;22.01;56.94;96202.44;5046628;28;20049;-63
2022/09/18 07:48:50;;;;;;;6.25;3.92;;;;;;;22.15;55.90;96197.00;5046658;28;20831;-64
2022/09/18 07:51:17;;;;;;;10.63;7.60;;;;;;;21.99;55.84;96205.72;5045876;28;20077;-65
2022/09/18 07:53:50;;;;;;;;;;;;;;;22.01;54.93;96203.22;5046706;28;20052;-64
2022/09/18 07:56:17;;;;;;;9.80;5.07;;;;;;;21.78;54.67;96195.28;5047566;28;19925;-64
2022/09/18 07:58:44;;;;;;;3.83;3.30;;;;;;;21.96;54.36;96201.00;5046265;28;20144;-64
2022/09/18 08:01:10;;;;;;;3.90;3.50;;;;;;;21.34;52.91;96080.34;5047183;28;20875;-64
2022/09/18 08:03:37;;;;;;;3.70;3.40;;;;;;;21.40;54.11;96155.34;5047619;28;20107;-64
2022/09/18 08:06:07;;;;;;;4.82;4.50;;;;;;;21.44;54.93;96198.25;5047067;28;20064;-65
2022/09/18 08:08:37;;;;;;;3.75;3.55;;;;;;;20.86;55.56;96104.34;5045905;28;20559;-65
2022/09/18 08:11:04;;;;;;;3.72;3.42;;;;;;;21.28;53.89;96173.13;5047014;28;20123;-65
2022/09/18 08:13:31;;;;;;;3.38;3.17;;;;;;;21.37;54.36;96204.16;5046818;28;20095;-65
2022/09/18 08:15:57;;;;;;;5.20;3.30;;;;;;;21.34;54.88;96209.94;5045443;28;20106;-66
2022/09/18 08:18:24;;;;;;;4.50;3.80;;;;;;;20.99;56.16;96220.53;5045939;28;20485;-65
2022/09/18 08:20:54;;;;;;;3.05;2.80;;;;;;;20.61;55.55;96209.38;5047009;28;20048;-65
2022/09/18 08:23:21;;;;;;;3.40;3.15;;;;;;;20.67;53.63;96229.28;5047560;28;20052;-64
2022/09/18 08:25:48;;;;;;;2.80;2.65;;;;;;;20.42;54.07;96237.81;5046807;28;20130;-64
2022/09/18 08:28:15;;;;;;;2.90;2.70;;;;;;;20.15;54.01;96234.72;5047268;28;20123;-64
2022/09/18 08:30:42;;;;;;;2.65;2.53;;;;;;;19.89;54.24;96210.66;5045475;28;20139;-64
2022/09/18 08:33:09;;;;;;;5.57;2.75;;;;;;;18.23;55.00;96014.88;5047289;28;20153;-64
2022/09/18 08:35:36;;;;;;;2.83;2.65;;;;;;;19.63;54.80;96235.19;5045789;28;20139;-64
2022/09/18 08:38:03;;;;;;;3.10;2.88;;;;;;;19.58;54.52;96230.88;5047083;28;20616;-64
2022/09/18 08:40:45;;;;;;;2.67;2.58;;;;;;;19.53;53.92;96228.66;5046560;28;20533;-65
2022/09/18 08:43:50;;;;;;;3.92;2.95;;;;;;;19.24;53.07;96173.75;5044774;28;20140;-64
2022/09/18 08:46:29;;;;;;;3.03;2.70;;;;;;;19.81;54.29;96226.16;5044680;28;20090;-64
2022/09/18 08:49:06;;;;;;;3.75;3.47;;;;;;;20.06;52.84;96195.25;5045504;28;20053;-64
2022/09/18 08:51:41;;;;;;;3.42;2.70;;;;;;;20.59;51.69;96222.34;5046222;28;20101;-65
2022/09/18 08:54:28;;;;;;;3.20;3.00;;;;;;;20.94;49.69;96237.97;5046351;28;20102;-65
2022/09/18 08:56:56;;;;;;;3.08;2.88;;;;;;;21.04;50.23;96239.63;5046097;28;20160;-64
2022/09/18 08:59:40;;;;;;;3.10;2.95;;;;;;;19.07;47.19;95928.84;5046148;28;20130;-66
2022/09/18 09:02:18;;;;;;;;;;;;;;;21.10;46.56;96229.34;5046914;28;20057;-63
2022/09/18 09:04:55;;;;;;;2.83;2.73;;;;;;;20.93;46.86;96213.84;5045958;28;19928;-63
2022/09/18 09:07:37;;;;;;;3.95;2.95;;;;;;;20.61;45.97;96186.09;5044631;28;20115;-63
2022/09/18 09:10:15;;;;;;;3.10;2.90;;;;;;;20.96;45.54;96219.38;5044787;28;20092;-64
2022/09/18 09:12:50;;;;;;;2.60;2.50;;;;;;;20.83;44.91;96223.50;5044716;28;20146;-63
2022/09/18 09:15:38;;;;;;;4.07;3.08;;;;;;;21.01;45.99;96236.97;5045670;28;20530;-63
2022/09/18 09:18:18;;;;;;;2.95;2.78;;;;;;;20.82;44.14;96224.72;5044478;28;20828;-62
2022/09/18 09:20:54;;;;;;;3.08;2.90;;;;;;;20.88;45.36;96225.72;5046012;28;20057;-63
2022/09/18 09:23:49;;;;;;;3.75;3.40;;;;;;;21.10;46.69;96229.34;5044582;28;20146;-62
2022/09/18 09:26:20;;;;;;;3.00;2.78;;;;;;;21.33;43.47;96226.06;5045927;28;20056;-61
2022/09/18 09:28:58;;;;;;;2.80;2.60;;;;;;;21.12;42.98;96209.19;5045861;28;20103;-63
2022/09/18 09:31:33;;;;;;;4.07;2.90;;;;;;;21.40;43.79;96208.88;5043441;28;20179;-65
2022/09/18 09:34:20;;;;;;;3.45;3.25;;;;;;;21.71;43.13;96234.25;5045323;28;20067;-66
2022/09/18 09:36:50;;;;;;;5.60;2.63;;;;;;;21.64;42.95;96234.53;5044044;28;20100;-66
2022/09/18 09:39:26;;;;;;;3.22;2.92;;;;;;;21.06;42.72;96132.13;5045791;28;20244;-67
2022/09/18 09:41:56;;;;;;;4.00;2.80;;;;;;;21.91;41.78;96221.34;5045644;28;20160;-66
2022/09/18 09:44:38;;;;;;;2.70;2.60;;;;;;;21.94;40.38;96226.06;5044925;28;20048;-67
2022/09/18 09:47:23;;;;;;;3.08;2.83;;;;;;;21.96;40.84;96234.84;5045664;28;20059;-66
2022/09/18 09:50:02;;;;;;;2.80;2.70;;;;;;;21.96;41.29;96225.59;5045179;28;20519;-66
2022/09/18 09:52:30;;;;;;;4.13;2.97;;;;;;;22.18;40.55;96224.25;5044745;28;20095;-66
2022/09/18 09:55:06;;;;;;;3.50;3.30;;;;;;;22.22;40.66;96227.72;5045247;28;20085;-67
2022/09/18 09:58:09;;;;;;;3.13;2.92;;;;;;;22.38;41.25;96233.09;5033666;28;20092;-66
2022/09/18 10:00:45;;;;;;;3.20;3.00;;;;;;;22.17;38.67;96205.78;5043852;28;20159;-67
2022/09/18 10:03:33;;;;;;;3.45;3.22;;;;;;;22.12;39.50;96260.00;5045282;28;20060;-66
2022/09/18 10:06:08;;;;;;;3.33;3.08;;;;;;;22.30;39.13;96231.03;5044910;28;20135;-65
2022/09/18 10:08:40;;;;;;;2.90;2.70;;;;;;;21.89;37.74;96158.97;5045149;28;20136;-66
2022/09/18 10:11:10;;;;;;;4.00;3.60;;;;;;;22.28;37.98;96234.34;5043660;28;20088;-66
2022/09/18 10:13:59;;;;;;;3.03;2.92;;;;;;;22.42;38.88;96245.03;5043609;28;20146;-67
2022/09/18 10:16:32;;;;;;;3.88;3.58;;;;;;;22.18;39.32;96252.47;5045173;28;20156;-67
2022/09/18 10:19:00;;;;;;;;;;;;;;;22.07;37.73;96252.13;5045404;28;20044;-66
2022/09/18 10:21:33;;;;;;;3.20;3.10;;;;;;;21.59;40.24;96221.81;5044965;28;20031;-66
2022/09/18 10:24:21;;;;;;;4.00;3.70;;;;;;;22.04;40.46;96264.34;5042674;28;20129;-68
2022/09/18 10:26:53;;;;;;;4.20;3.20;;;;;;;22.02;40.83;96260.44;5044654;28;20518;-66
2022/09/18 10:29:20;;;;;;;3.35;3.13;;;;;;;21.55;40.12;96189.38;5043353;28;20082;-66
2022/09/18 10:31:52;;;;;;;3.47;3.28;;;;;;;22.08;39.92;96264.97;5044463;28;20096;-67
2022/09/18 10:34:45;;;;;;;3.08;2.88;;;;;;;21.91;40.21;96272.13;5044190;28;20063;-67
2022/09/18 10:37:28;;;;;;;3.95;3.45;;;;;;;21.98;41.89;96271.06;5042969;28;20098;-66
2022/09/18 10:39:58;;;;;;;3.50;3.30;;;;;;;22.21;40.25;96267.69;5042854;28;20053;-66
2022/09/18 10:42:27;;;;;;;3.97;3.67;;;;;;;22.21;40.05;96273.31;5042908;28;20064;-67
2022/09/18 10:44:57;;;;;;;3.38;3.17;;;;;;;21.91;37.88;96198.78;5044119;28;20060;-66
2022/09/18 10:47:30;;;;;;;3.47;3.38;;;;;;;21.94;38.27;96209.13;5043460;28;20071;-67
2022/09/18 10:50:06;;;;;;;3.20;3.10;;;;;;;22.45;38.02;96268.69;5044148;28;20626;-68
2022/09/18 10:52:38;;;;;;;3.22;3.08;;;;;;;22.48;39.57;96272.63;5044762;28;20161;-67
2022/09/18 10:55:06;;;;;;;3.67;3.47;;;;;;;22.43;40.17;96279.66;5044512;28;20068;-67
2022/09/18 10:57:36;;;;;;;3.55;3.35;;;;;;;22.06;39.11;96273.13;5043180;28;20303;-67
2022/09/18 11:00:23;;;;;;;3.35;3.15;;;;;;;21.92;39.71;96279.34;5043092;28;20095;-66
2022/09/18 11:02:55;;;;;;;3.50;3.30;;;;;;;21.87;39.25;96270.69;5044537;28;20056;-66
2022/09/18 11:05:27;;;;;;;3.70;3.40;;;;;;;21.41;40.25;96173.81;5042460;28;20060;-68
2022/09/18 11:07:56;;;;;;;3.67;3.33;;;;;;;22.05;40.09;96280.00;5044780;28;20064;-67
2022/09/18 11:10:25;;;;;;;3.42;3.22;;;;;;;22.04;40.05;96278.44;5042777;28;20431;-67
2022/09/18 11:12:57;;;;;;;4.20;3.63;;;;;;;22.23;40.80;96277.25;5042688;28;20478;-67
2022/09/18 11:15:28;;;;;;;3.50;3.30;;;;;;;22.55;39.77;96275.19;5042765;28;20152;-67
2022/09/18 11:17:58;;;;;;;3.63;3.40;;;;;;;22.42;38.92;96284.53;5042897;28;20056;-67
2022/09/18 11:20:32;;;;;;;3.92;3.58;;;;;;;22.09;38.93;96215.78;5042787;28;20136;-65
2022/09/18 11:23:17;;;;;;;4.05;3.80;;;;;;;22.48;39.34;96278.28;5044341;28;20251;-66
2022/09/18 11:25:46;;;;;;;4.47;4.07;;;;;;;22.37;39.08;96282.31;5043863;28;20092;-66
2022/09/18 11:28:26;;;;;;;3.63;3.33;;;;;;;22.62;38.92;96289.78;5044064;28;21223;-66
2022/09/18 11:31:01;;;;;;;3.20;3.10;;;;;;;22.75;38.01;96295.28;5042597;28;20053;-66
2022/09/18 11:33:41;;;;;;;4.05;3.78;;;;;;;21.96;38.19;96175.63;5042653;28;20144;-67
2022/09/18 11:36:10;;;;;;;3.80;3.60;;;;;;;22.62;37.65;96229.72;5044074;28;20446;-66
2022/09/18 11:38:43;;;;;;;4.22;3.92;;;;;;;23.02;37.55;96296.09;5042453;28;20081;-66
2022/09/18 11:41:12;;;;;;;3.78;3.50;;;;;;;22.46;38.10;96223.06;5042244;28;20591;-66
2022/09/18 11:43:41;;;;;;;3.70;3.45;;;;;;;22.78;37.88;96300.78;5042617;28;20198;-67
2022/09/18 11:46:20;;;;;;;4.10;3.65;;;;;;;22.83;37.39;96294.53;5043810;28;20602;-67
2022/09/18 11:49:22;;;;;;;3.53;3.33;;;;;;;23.35;37.14;96288.59;5042755;28;20060;-67
2022/09/18 11:52:08;;;;;;;4.00;3.80;;;;;;;23.59;36.42;96295.16;5043769;28;20511;-65